sensor_id;sensor_type;location;lat;lon;timestamp;pressure;altitude;pressure_sealevel;temperature;humidity
71126;BME280;58785;55.566;38.058;2023-02-19T00:01:43;98836.19;;;-5.02;70.20
71126;BME280;58785;55.566;38.058;2023-02-19T00:06:39;98835.44;;;-5.04;70.43
71126;BME280;58785;55.566;38.058;2023-02-19T00:09:05;98832.09;;;-5.06;70.51
71126;BME280;58785;55.566;38.058;2023-02-19T00:11:32;98821.88;;;-5.09;70.49
71126;BME280;58785;55.566;38.058;2023-02-19T00:13:59;98829.94;;;-4.98;70.55
71126;BME280;58785;55.566;38.058;2023-02-19T00:16:31;98829.00;;;-4.97;70.44
71126;BME280;58785;55.566;38.058;2023-02-19T00:18:58;98800.25;;;-5.09;70.85
71126;BME280;58785;55.566;38.058;2023-02-19T00:21:25;98801.22;;;-5.12;70.67
71126;BME280;58785;55.566;38.058;2023-02-19T00:23:52;98818.09;;;-5.03;70.67
71126;BME280;58785;55.566;38.058;2023-02-19T00:26:19;98807.88;;;-5.06;70.58
71126;BME280;58785;55.566;38.058;2023-02-19T00:28:46;98808.03;;;-5.09;70.97
71126;BME280;58785;55.566;38.058;2023-02-19T00:31:16;98822.63;;;-5.07;70.58
71126;BME280;58785;55.566;38.058;2023-02-19T00:33:43;98814.50;;;-5.01;70.87
71126;BME280;58785;55.566;38.058;2023-02-19T00:36:09;98805.69;;;-4.98;70.48
71126;BME280;58785;55.566;38.058;2023-02-19T00:38:35;98812.47;;;-4.96;71.01
71126;BME280;58785;55.566;38.058;2023-02-19T00:41:02;98806.63;;;-4.99;70.61
71126;BME280;58785;55.566;38.058;2023-02-19T00:43:57;98795.72;;;-5.06;70.50
71126;BME280;58785;55.566;38.058;2023-02-19T00:46:28;98793.38;;;-5.10;71.05
71126;BME280;58785;55.566;38.058;2023-02-19T00:48:55;98787.66;;;-5.17;70.90
71126;BME280;58785;55.566;38.058;2023-02-19T00:51:23;98782.84;;;-5.25;70.82
71126;BME280;58785;55.566;38.058;2023-02-19T00:53:49;98777.75;;;-5.26;71.57
71126;BME280;58785;55.566;38.058;2023-02-19T00:56:15;98798.03;;;-5.17;70.99
71126;BME280;58785;55.566;38.058;2023-02-19T00:58:40;98786.38;;;-5.26;71.36
71126;BME280;58785;55.566;38.058;2023-02-19T01:01:06;98783.78;;;-5.26;71.45
71126;BME280;58785;55.566;38.058;2023-02-19T01:03:33;98785.47;;;-5.25;71.87
71126;BME280;58785;55.566;38.058;2023-02-19T01:05:59;98785.22;;;-5.20;71.77
71126;BME280;58785;55.566;38.058;2023-02-19T01:08:25;98785.06;;;-5.17;71.52
71126;BME280;58785;55.566;38.058;2023-02-19T01:10:51;98782.97;;;-5.10;70.92
71126;BME280;58785;55.566;38.058;2023-02-19T01:13:17;98781.28;;;-5.11;70.91
71126;BME280;58785;55.566;38.058;2023-02-19T01:15:43;98768.38;;;-5.13;71.36
71126;BME280;58785;55.566;38.058;2023-02-19T01:18:10;98785.22;;;-5.04;71.17
71126;BME280;58785;55.566;38.058;2023-02-19T01:20:39;98764.44;;;-5.04;71.02
71126;BME280;58785;55.566;38.058;2023-02-19T01:23:05;98764.53;;;-5.06;70.95
71126;BME280;58785;55.566;38.058;2023-02-19T01:25:31;98761.84;;;-5.04;71.31
71126;BME280;58785;55.566;38.058;2023-02-19T01:27:57;98764.78;;;-5.10;71.12
71126;BME280;58785;55.566;38.058;2023-02-19T01:30:22;98761.25;;;-5.09;71.33
71126;BME280;58785;55.566;38.058;2023-02-19T01:32:48;98762.00;;;-5.07;71.11
71126;BME280;58785;55.566;38.058;2023-02-19T01:35:13;98749.09;;;-5.09;70.87
71126;BME280;58785;55.566;38.058;2023-02-19T01:37:39;98738.94;;;-5.13;71.02
71126;BME280;58785;55.566;38.058;2023-02-19T01:40:05;98751.78;;;-5.10;71.30
71126;BME280;58785;55.566;38.058;2023-02-19T01:42:31;98754.97;;;-5.05;71.12
71126;BME280;58785;55.566;38.058;2023-02-19T01:47:40;98752.47;;;-5.07;71.71
71126;BME280;58785;55.566;38.058;2023-02-19T01:50:05;98739.03;;;-5.15;71.13
71126;BME280;58785;55.566;38.058;2023-02-19T01:52:33;98755.28;;;-5.11;71.46
71126;BME280;58785;55.566;38.058;2023-02-19T01:55:02;98745.91;;;-5.14;71.46
71126;BME280;58785;55.566;38.058;2023-02-19T01:57:33;98751.94;;;-5.13;71.46
71126;BME280;58785;55.566;38.058;2023-02-19T02:00:07;98748.38;;;-5.11;71.80
71126;BME280;58785;55.566;38.058;2023-02-19T02:02:34;98736.44;;;-5.15;71.42
71126;BME280;58785;55.566;38.058;2023-02-19T02:05:00;98754.53;;;-5.13;71.94
71126;BME280;58785;55.566;38.058;2023-02-19T02:07:26;98743.41;;;-5.15;71.67
71126;BME280;58785;55.566;38.058;2023-02-19T02:10:10;98739.31;;;-5.19;71.98
71126;BME280;58785;55.566;38.058;2023-02-19T02:12:46;98744.59;;;-5.21;71.63
71126;BME280;58785;55.566;38.058;2023-02-19T02:15:13;98737.84;;;-5.25;71.14
71126;BME280;58785;55.566;38.058;2023-02-19T02:20:57;98742.03;;;-5.23;72.01
71126;BME280;58785;55.566;38.058;2023-02-19T02:31:46;98721.44;;;-5.26;71.68
71126;BME280;58785;55.566;38.058;2023-02-19T02:34:26;98735.25;;;-5.25;71.68
71126;BME280;58785;55.566;38.058;2023-02-19T02:36:55;98718.66;;;-5.38;71.79
71126;BME280;58785;55.566;38.058;2023-02-19T02:39:24;98740.94;;;-5.34;71.75
71126;BME280;58785;55.566;38.058;2023-02-19T02:41:57;98724.63;;;-5.36;72.40
71126;BME280;58785;55.566;38.058;2023-02-19T02:44:43;98723.88;;;-5.38;71.78
71126;BME280;58785;55.566;38.058;2023-02-19T02:47:32;98727.38;;;-5.24;71.78
71126;BME280;58785;55.566;38.058;2023-02-19T02:50:25;98720.34;;;-5.22;71.75
71126;BME280;58785;55.566;38.058;2023-02-19T02:52:58;98725.53;;;-5.22;71.49
71126;BME280;58785;55.566;38.058;2023-02-19T02:55:46;98715.59;;;-5.29;71.72
71126;BME280;58785;55.566;38.058;2023-02-19T02:58:15;98706.53;;;-5.38;71.94
71126;BME280;58785;55.566;38.058;2023-02-19T03:00:44;98721.34;;;-5.24;71.56
71126;BME280;58785;55.566;38.058;2023-02-19T03:03:34;98731.25;;;-5.15;71.88
71126;BME280;58785;55.566;38.058;2023-02-19T03:06:04;98711.28;;;-5.14;71.03
71126;BME280;58785;55.566;38.058;2023-02-19T03:08:42;98712.03;;;-5.12;71.68
71126;BME280;58785;55.566;38.058;2023-02-19T03:11:10;98711.28;;;-5.14;71.02
71126;BME280;58785;55.566;38.058;2023-02-19T03:14:05;98705.25;;;-5.15;71.48
71126;BME280;58785;55.566;38.058;2023-02-19T03:16:55;98699.97;;;-5.13;71.36
71126;BME280;58785;55.566;38.058;2023-02-19T03:19:44;98694.88;;;-5.15;71.26
71126;BME280;58785;55.566;38.058;2023-02-19T03:22:18;98699.13;;;-5.14;71.38
71126;BME280;58785;55.566;38.058;2023-02-19T03:25:04;98692.53;;;-5.19;71.58
71126;BME280;58785;55.566;38.058;2023-02-19T03:27:51;98685.59;;;-5.19;71.28
71126;BME280;58785;55.566;38.058;2023-02-19T03:30:21;98689.94;;;-5.19;71.77
71126;BME280;58785;55.566;38.058;2023-02-19T03:32:55;98693.84;;;-5.12;71.24
71126;BME280;58785;55.566;38.058;2023-02-19T03:35:26;98697.28;;;-5.12;71.36
71126;BME280;58785;55.566;38.058;2023-02-19T03:38:12;98686.00;;;-5.11;71.25
71126;BME280;58785;55.566;38.058;2023-02-19T03:43:56;98690.94;;;-5.06;71.77
71126;BME280;58785;55.566;38.058;2023-02-19T03:49:34;98696.69;;;-5.01;70.96
71126;BME280;58785;55.566;38.058;2023-02-19T03:52:17;98694.97;;;-5.01;71.06
71126;BME280;58785;55.566;38.058;2023-02-19T03:57:43;98673.75;;;-5.09;71.66
71126;BME280;58785;55.566;38.058;2023-02-19T04:03:25;98673.91;;;-5.12;71.54
71126;BME280;58785;55.566;38.058;2023-02-19T04:06:00;98661.94;;;-5.14;71.85
71126;BME280;58785;55.566;38.058;2023-02-19T04:08:28;98656.63;;;-5.13;71.52
71126;BME280;58785;55.566;38.058;2023-02-19T04:10:57;98662.34;;;-5.06;72.04
71126;BME280;58785;55.566;38.058;2023-02-19T04:13:37;98657.06;;;-5.05;71.63
71126;BME280;58785;55.566;38.058;2023-02-19T04:16:09;98651.84;;;-5.05;71.94
71126;BME280;58785;55.566;38.058;2023-02-19T04:18:39;98661.19;;;-5.01;71.32
71126;BME280;58785;55.566;38.058;2023-02-19T04:21:06;98666.19;;;-4.98;71.41
71126;BME280;58785;55.566;38.058;2023-02-19T04:23:37;98674.75;;;-4.96;71.82
71126;BME280;58785;55.566;38.058;2023-02-19T04:26:04;98663.41;;;-4.95;71.66
71126;BME280;58785;55.566;38.058;2023-02-19T04:28:33;98667.69;;;-4.94;71.63
71126;BME280;58785;55.566;38.058;2023-02-19T04:31:00;98660.63;;;-4.92;71.66
71126;BME280;58785;55.566;38.058;2023-02-19T04:33:25;98664.84;;;-4.89;71.43
71126;BME280;58785;55.566;38.058;2023-02-19T04:35:51;98652.94;;;-4.93;71.44
71126;BME280;58785;55.566;38.058;2023-02-19T04:38:18;98664.00;;;-4.89;71.19
71126;BME280;58785;55.566;38.058;2023-02-19T04:40:43;98661.31;;;-4.88;71.31
71126;BME280;58785;55.566;38.058;2023-02-19T04:43:09;98646.97;;;-4.95;71.69
71126;BME280;58785;55.566;38.058;2023-02-19T04:45:38;98633.34;;;-4.99;71.83
71126;BME280;58785;55.566;38.058;2023-02-19T04:48:04;98657.19;;;-4.92;71.91
71126;BME280;58785;55.566;38.058;2023-02-19T04:50:30;98643.72;;;-4.99;71.68
71126;BME280;58785;55.566;38.058;2023-02-19T04:52:56;98647.72;;;-4.93;71.45
71126;BME280;58785;55.566;38.058;2023-02-19T04:55:22;98656.03;;;-4.86;71.55
71126;BME280;58785;55.566;38.058;2023-02-19T04:57:47;98650.56;;;-4.82;71.58
71126;BME280;58785;55.566;38.058;2023-02-19T05:00:13;98640.84;;;-4.78;71.39
71126;BME280;58785;55.566;38.058;2023-02-19T05:02:39;98648.34;;;-4.74;71.74
71126;BME280;58785;55.566;38.058;2023-02-19T05:05:05;98648.19;;;-4.71;71.33
71126;BME280;58785;55.566;38.058;2023-02-19T05:07:31;98643.56;;;-4.66;71.05
71126;BME280;58785;55.566;38.058;2023-02-19T05:09:56;98646.16;;;-4.66;71.15
71126;BME280;58785;55.566;38.058;2023-02-19T05:12:24;98642.72;;;-4.66;71.09
71126;BME280;58785;55.566;38.058;2023-02-19T05:14:50;98638.16;;;-4.63;71.15
71126;BME280;58785;55.566;38.058;2023-02-19T05:17:16;98644.22;;;-4.62;70.84
71126;BME280;58785;55.566;38.058;2023-02-19T05:19:42;98644.47;;;-4.67;71.21
71126;BME280;58785;55.566;38.058;2023-02-19T05:22:08;98634.53;;;-4.74;71.68
71126;BME280;58785;55.566;38.058;2023-02-19T05:24:33;98632.59;;;-4.71;71.48
71126;BME280;58785;55.566;38.058;2023-02-19T05:26:59;98636.41;;;-4.62;71.18
71126;BME280;58785;55.566;38.058;2023-02-19T05:29:24;98637.09;;;-4.58;71.44
71126;BME280;58785;55.566;38.058;2023-02-19T05:31:50;98634.38;;;-4.57;71.14
71126;BME280;58785;55.566;38.058;2023-02-19T05:34:16;98637.19;;;-4.60;70.78
71126;BME280;58785;55.566;38.058;2023-02-19T05:36:41;98620.34;;;-4.69;71.36
71126;BME280;58785;55.566;38.058;2023-02-19T05:39:07;98641.44;;;-4.59;71.36
71126;BME280;58785;55.566;38.058;2023-02-19T05:41:33;98629.75;;;-4.52;71.10
71126;BME280;58785;55.566;38.058;2023-02-19T05:43:59;98630.41;;;-4.48;70.86
71126;BME280;58785;55.566;38.058;2023-02-19T05:46:27;98613.69;;;-4.58;70.99
71126;BME280;58785;55.566;38.058;2023-02-19T05:48:54;98631.91;;;-4.44;70.90
71126;BME280;58785;55.566;38.058;2023-02-19T05:51:23;98630.34;;;-4.32;70.98
71126;BME280;58785;55.566;38.058;2023-02-19T05:53:49;98611.75;;;-4.26;70.50
71126;BME280;58785;55.566;38.058;2023-02-19T05:58:51;98622.94;;;-4.10;69.95
71126;BME280;58785;55.566;38.058;2023-02-19T06:01:18;98624.59;;;-4.09;70.16
71126;BME280;58785;55.566;38.058;2023-02-19T06:03:46;98615.56;;;-4.03;69.96
71126;BME280;58785;55.566;38.058;2023-02-19T06:06:16;98624.88;;;-3.99;70.10
71126;BME280;58785;55.566;38.058;2023-02-19T06:08:43;98619.75;;;-4.01;70.13
71126;BME280;58785;55.566;38.058;2023-02-19T06:11:09;98602.09;;;-3.96;70.09
71126;BME280;58785;55.566;38.058;2023-02-19T06:13:37;98622.38;;;-3.87;69.43
71126;BME280;58785;55.566;38.058;2023-02-19T06:16:04;98617.91;;;-3.85;70.00
71126;BME280;58785;55.566;38.058;2023-02-19T06:18:30;98617.53;;;-3.79;69.51
71126;BME280;58785;55.566;38.058;2023-02-19T06:21:03;98607.84;;;-3.77;70.19
71126;BME280;58785;55.566;38.058;2023-02-19T06:23:29;98622.72;;;-3.64;69.45
71126;BME280;58785;55.566;38.058;2023-02-19T06:26:22;98617.03;;;-3.57;69.58
71126;BME280;58785;55.566;38.058;2023-02-19T06:28:49;98614.41;;;-3.57;69.62
71126;BME280;58785;55.566;38.058;2023-02-19T06:31:16;98615.25;;;-3.56;69.42
71126;BME280;58785;55.566;38.058;2023-02-19T06:33:42;98606.34;;;-3.66;69.29
71126;BME280;58785;55.566;38.058;2023-02-19T06:36:16;98597.59;;;-3.65;69.77
71126;BME280;58785;55.566;38.058;2023-02-19T06:38:43;98599.16;;;-3.63;69.67
71126;BME280;58785;55.566;38.058;2023-02-19T06:41:09;98608.06;;;-3.53;69.14
71126;BME280;58785;55.566;38.058;2023-02-19T06:43:35;98610.03;;;-3.56;69.35
71126;BME280;58785;55.566;38.058;2023-02-19T06:46:05;98606.41;;;-3.54;69.26
71126;BME280;58785;55.566;38.058;2023-02-19T06:48:32;98601.75;;;-3.49;69.31
71126;BME280;58785;55.566;38.058;2023-02-19T06:50:58;98595.13;;;-3.40;68.97
71126;BME280;58785;55.566;38.058;2023-02-19T06:53:23;98594.94;;;-3.37;68.53
71126;BME280;58785;55.566;38.058;2023-02-19T06:58:25;98592.66;;;-3.29;68.34
71126;BME280;58785;55.566;38.058;2023-02-19T07:00:50;98593.41;;;-3.27;68.63
71126;BME280;58785;55.566;38.058;2023-02-19T07:03:16;98595.44;;;-3.32;68.36
71126;BME280;58785;55.566;38.058;2023-02-19T07:05:42;98600.28;;;-3.26;68.30
71126;BME280;58785;55.566;38.058;2023-02-19T07:08:08;98598.31;;;-3.22;68.31
71126;BME280;58785;55.566;38.058;2023-02-19T07:10:34;98602.50;;;-3.20;68.45
71126;BME280;58785;55.566;38.058;2023-02-19T07:12:59;98585.38;;;-3.24;68.35
71126;BME280;58785;55.566;38.058;2023-02-19T07:15:25;98586.78;;;-3.18;68.27
71126;BME280;58785;55.566;38.058;2023-02-19T07:17:50;98577.47;;;-3.22;67.98
71126;BME280;58785;55.566;38.058;2023-02-19T07:20:16;98579.06;;;-3.20;68.22
71126;BME280;58785;55.566;38.058;2023-02-19T07:22:41;98587.59;;;-3.17;68.12
71126;BME280;58785;55.566;38.058;2023-02-19T07:25:07;98572.06;;;-3.19;68.87
71126;BME280;58785;55.566;38.058;2023-02-19T07:27:33;98571.75;;;-3.14;68.41
71126;BME280;58785;55.566;38.058;2023-02-19T07:29:58;98568.94;;;-3.11;68.26
71126;BME280;58785;55.566;38.058;2023-02-19T07:32:24;98556.66;;;-3.09;68.05
71126;BME280;58785;55.566;38.058;2023-02-19T07:34:49;98572.53;;;-3.00;67.84
71126;BME280;58785;55.566;38.058;2023-02-19T07:37:15;98567.63;;;-2.92;67.61
71126;BME280;58785;55.566;38.058;2023-02-19T07:39:40;98560.97;;;-2.96;67.10
71126;BME280;58785;55.566;38.058;2023-02-19T07:42:06;98567.56;;;-2.90;67.21
71126;BME280;58785;55.566;38.058;2023-02-19T07:44:32;98569.63;;;-2.82;67.70
71126;BME280;58785;55.566;38.058;2023-02-19T07:46:57;98569.13;;;-2.75;66.96
71126;BME280;58785;55.566;38.058;2023-02-19T07:49:23;98549.09;;;-2.74;67.18
71126;BME280;58785;55.566;38.058;2023-02-19T07:51:48;98560.09;;;-2.56;67.01
71126;BME280;58785;55.566;38.058;2023-02-19T07:54:14;98554.75;;;-2.55;66.77
71126;BME280;58785;55.566;38.058;2023-02-19T07:56:39;98549.31;;;-2.52;66.87
71126;BME280;58785;55.566;38.058;2023-02-19T07:59:05;98552.66;;;-2.63;66.97
71126;BME280;58785;55.566;38.058;2023-02-19T08:01:31;98546.94;;;-2.68;66.81
71126;BME280;58785;55.566;38.058;2023-02-19T08:04:15;98548.06;;;-2.72;67.00
71126;BME280;58785;55.566;38.058;2023-02-19T08:06:41;98544.31;;;-2.68;66.81
71126;BME280;58785;55.566;38.058;2023-02-19T08:09:07;98535.56;;;-2.79;66.63
71126;BME280;58785;55.566;38.058;2023-02-19T08:11:33;98526.56;;;-2.88;67.12
71126;BME280;58785;55.566;38.058;2023-02-19T08:14:17;98531.13;;;-2.92;66.59
71126;BME280;58785;55.566;38.058;2023-02-19T08:16:50;98538.44;;;-2.84;67.64
71126;BME280;58785;55.566;38.058;2023-02-19T08:19:16;98547.31;;;-2.74;66.29
71126;BME280;58785;55.566;38.058;2023-02-19T08:21:43;98543.50;;;-2.68;67.03
71126;BME280;58785;55.566;38.058;2023-02-19T08:24:08;98536.19;;;-2.50;65.99
71126;BME280;58785;55.566;38.058;2023-02-19T08:26:34;98526.38;;;-2.47;66.10
71126;BME280;58785;55.566;38.058;2023-02-19T08:29:00;98528.78;;;-2.56;66.29
71126;BME280;58785;55.566;38.058;2023-02-19T08:31:26;98540.44;;;-2.62;66.65
71126;BME280;58785;55.566;38.058;2023-02-19T08:33:52;98540.16;;;-2.57;66.61
71126;BME280;58785;55.566;38.058;2023-02-19T08:36:17;98532.22;;;-2.56;66.47
71126;BME280;58785;55.566;38.058;2023-02-19T08:38:43;98537.09;;;-2.51;65.84
71126;BME280;58785;55.566;38.058;2023-02-19T08:41:11;98526.78;;;-2.53;66.23
71126;BME280;58785;55.566;38.058;2023-02-19T08:43:37;98536.91;;;-2.36;65.90
71126;BME280;58785;55.566;38.058;2023-02-19T08:46:03;98527.06;;;-2.32;65.66
71126;BME280;58785;55.566;38.058;2023-02-19T08:48:30;98528.34;;;-2.25;65.45
71126;BME280;58785;55.566;38.058;2023-02-19T08:50:57;98526.63;;;-2.13;65.32
71126;BME280;58785;55.566;38.058;2023-02-19T08:53:24;98510.88;;;-2.12;65.46
71126;BME280;58785;55.566;38.058;2023-02-19T08:55:50;98526.72;;;-2.02;65.53
71126;BME280;58785;55.566;38.058;2023-02-19T08:58:16;98506.06;;;-2.05;65.37
71126;BME280;58785;55.566;38.058;2023-02-19T09:00:41;98506.47;;;-2.11;65.38
71126;BME280;58785;55.566;38.058;2023-02-19T09:03:07;98518.31;;;-2.18;65.22
71126;BME280;58785;55.566;38.058;2023-02-19T09:05:32;98521.13;;;-2.21;65.66
71126;BME280;58785;55.566;38.058;2023-02-19T09:07:58;98517.03;;;-2.13;65.99
71126;BME280;58785;55.566;38.058;2023-02-19T09:10:24;98492.50;;;-2.23;65.98
71126;BME280;58785;55.566;38.058;2023-02-19T09:12:50;98514.13;;;-2.08;65.82
71126;BME280;58785;55.566;38.058;2023-02-19T09:15:16;98503.44;;;-2.05;65.37
71126;BME280;58785;55.566;38.058;2023-02-19T09:17:42;98492.78;;;-2.02;65.49
71126;BME280;58785;55.566;38.058;2023-02-19T09:20:08;98481.13;;;-2.09;65.43
71126;BME280;58785;55.566;38.058;2023-02-19T09:22:35;98506.59;;;-2.00;65.46
71126;BME280;58785;55.566;38.058;2023-02-19T09:25:00;98505.47;;;-1.85;65.39
71126;BME280;58785;55.566;38.058;2023-02-19T09:27:26;98499.16;;;-1.69;64.83
71126;BME280;58785;55.566;38.058;2023-02-19T09:29:52;98496.16;;;-1.76;64.96
71126;BME280;58785;55.566;38.058;2023-02-19T09:32:19;98497.03;;;-1.88;65.03
71126;BME280;58785;55.566;38.058;2023-02-19T09:34:45;98486.28;;;-1.96;65.24
71126;BME280;58785;55.566;38.058;2023-02-19T09:37:10;98484.03;;;-2.14;65.29
71126;BME280;58785;55.566;38.058;2023-02-19T09:39:36;98485.31;;;-2.32;65.51
71126;BME280;58785;55.566;38.058;2023-02-19T09:42:16;98482.50;;;-2.42;66.40
71126;BME280;58785;55.566;38.058;2023-02-19T09:44:48;98478.97;;;-2.41;65.98
71126;BME280;58785;55.566;38.058;2023-02-19T09:47:17;98471.78;;;-2.37;66.34
71126;BME280;58785;55.566;38.058;2023-02-19T09:49:46;98482.28;;;-2.26;66.11
71126;BME280;58785;55.566;38.058;2023-02-19T09:55:08;98466.59;;;-2.13;65.51
71126;BME280;58785;55.566;38.058;2023-02-19T09:57:38;98455.50;;;-2.04;65.54
71126;BME280;58785;55.566;38.058;2023-02-19T10:02:36;98454.28;;;-1.87;65.53
71126;BME280;58785;55.566;38.058;2023-02-19T10:05:11;98461.19;;;-1.86;65.18
71126;BME280;58785;55.566;38.058;2023-02-19T10:07:40;98457.75;;;-1.87;64.96
71126;BME280;58785;55.566;38.058;2023-02-19T10:12:45;98451.00;;;-2.02;65.35
71126;BME280;58785;55.566;38.058;2023-02-19T10:15:16;98453.41;;;-1.99;65.63
71126;BME280;58785;55.566;38.058;2023-02-19T10:17:42;98449.44;;;-2.05;65.47
71126;BME280;58785;55.566;38.058;2023-02-19T10:20:15;98448.19;;;-1.99;65.57
71126;BME280;58785;55.566;38.058;2023-02-19T10:22:42;98452.47;;;-1.98;65.27
71126;BME280;58785;55.566;38.058;2023-02-19T10:25:13;98433.47;;;-2.00;65.28
71126;BME280;58785;55.566;38.058;2023-02-19T10:27:40;98451.69;;;-1.87;65.46
71126;BME280;58785;55.566;38.058;2023-02-19T10:30:06;98448.97;;;-1.86;65.31
71126;BME280;58785;55.566;38.058;2023-02-19T10:32:37;98450.56;;;-1.96;65.76
71126;BME280;58785;55.566;38.058;2023-02-19T10:35:07;98451.41;;;-1.95;65.87
71126;BME280;58785;55.566;38.058;2023-02-19T10:37:34;98450.38;;;-2.06;66.17
71126;BME280;58785;55.566;38.058;2023-02-19T10:40:01;98444.09;;;-2.03;65.98
71126;BME280;58785;55.566;38.058;2023-02-19T10:42:28;98453.22;;;-2.09;65.80
71126;BME280;58785;55.566;38.058;2023-02-19T10:44:56;98454.16;;;-2.10;66.11
71126;BME280;58785;55.566;38.058;2023-02-19T10:47:27;98458.34;;;-2.07;65.66
71126;BME280;58785;55.566;38.058;2023-02-19T10:49:58;98449.25;;;-2.14;65.69
71126;BME280;58785;55.566;38.058;2023-02-19T10:52:27;98452.47;;;-2.11;65.84
71126;BME280;58785;55.566;38.058;2023-02-19T10:55:13;98441.59;;;-2.05;65.73
71126;BME280;58785;55.566;38.058;2023-02-19T10:57:39;98449.56;;;-1.82;65.19
71126;BME280;58785;55.566;38.058;2023-02-19T11:02:41;98446.84;;;-1.57;64.42
71126;BME280;58785;55.566;38.058;2023-02-19T11:10:25;98448.88;;;-1.60;64.68
71126;BME280;58785;55.566;38.058;2023-02-19T11:12:55;98447.78;;;-1.58;64.97
71126;BME280;58785;55.566;38.058;2023-02-19T11:15:33;98432.13;;;-1.58;64.52
71126;BME280;58785;55.566;38.058;2023-02-19T11:18:21;98455.69;;;-1.47;64.57
71126;BME280;58785;55.566;38.058;2023-02-19T11:20:52;98440.81;;;-1.46;64.76
71126;BME280;58785;55.566;38.058;2023-02-19T11:23:24;98434.56;;;-1.32;64.52
71126;BME280;58785;55.566;38.058;2023-02-19T11:25:52;98439.50;;;-1.17;63.82
71126;BME280;58785;55.566;38.058;2023-02-19T11:30:47;98448.78;;;-1.01;63.70
71126;BME280;58785;55.566;38.058;2023-02-19T11:35:42;98426.34;;;-0.81;63.49
71126;BME280;58785;55.566;38.058;2023-02-19T11:38:11;98428.38;;;-0.63;63.63
71126;BME280;58785;55.566;38.058;2023-02-19T11:40:44;98432.78;;;-0.30;62.81
71126;BME280;58785;55.566;38.058;2023-02-19T11:48:43;98429.13;;;0.69;60.38
71126;BME280;58785;55.566;38.058;2023-02-19T11:51:21;98414.19;;;0.81;60.05
71126;BME280;58785;55.566;38.058;2023-02-19T11:57:30;98415.69;;;0.42;60.76
71126;BME280;58785;55.566;38.058;2023-02-19T12:00:19;98413.19;;;-0.03;62.48
71126;BME280;58785;55.566;38.058;2023-02-19T12:03:11;98417.28;;;-0.21;62.32
71126;BME280;58785;55.566;38.058;2023-02-19T12:12:20;98423.47;;;-1.01;63.44
71126;BME280;58785;55.566;38.058;2023-02-19T12:25:46;98416.47;;;-1.47;64.25
71126;BME280;58785;55.566;38.058;2023-02-19T12:44:59;98409.91;;;-1.17;63.10
71126;BME280;58785;55.566;38.058;2023-02-19T12:47:37;98417.47;;;-1.25;63.20
71126;BME280;58785;55.566;38.058;2023-02-19T12:50:16;98419.09;;;-1.47;63.97
71126;BME280;58785;55.566;38.058;2023-02-19T12:52:46;98416.41;;;-1.69;63.80
71126;BME280;58785;55.566;38.058;2023-02-19T12:55:40;98417.00;;;-1.89;64.44
71126;BME280;58785;55.566;38.058;2023-02-19T12:58:27;98416.94;;;-2.00;64.28
71126;BME280;58785;55.566;38.058;2023-02-19T13:00:55;98417.44;;;-1.95;64.78
71126;BME280;58785;55.566;38.058;2023-02-19T13:06:40;98428.66;;;-2.06;64.90
71126;BME280;58785;55.566;38.058;2023-02-19T13:11:40;98420.31;;;-2.11;64.61
71126;BME280;58785;55.566;38.058;2023-02-19T13:16:51;98417.50;;;-2.08;64.26
71126;BME280;58785;55.566;38.058;2023-02-19T13:19:19;98414.25;;;-2.12;64.24
71126;BME280;58785;55.566;38.058;2023-02-19T13:21:48;98418.22;;;-2.06;64.20
71126;BME280;58785;55.566;38.058;2023-02-19T13:24:38;98416.88;;;-2.12;64.94
71126;BME280;58785;55.566;38.058;2023-02-19T13:27:30;98417.31;;;-2.18;64.83
71126;BME280;58785;55.566;38.058;2023-02-19T13:38:14;98412.56;;;-2.37;65.28
71126;BME280;58785;55.566;38.058;2023-02-19T13:40:42;98404.88;;;-2.51;64.96
71126;BME280;58785;55.566;38.058;2023-02-19T13:43:29;98425.44;;;-2.46;65.14
71126;BME280;58785;55.566;38.058;2023-02-19T13:46:06;98420.84;;;-2.55;65.02
71126;BME280;58785;55.566;38.058;2023-02-19T13:48:34;98419.00;;;-2.66;65.06
71126;BME280;58785;55.566;38.058;2023-02-19T13:51:36;98424.31;;;-2.68;65.68
71126;BME280;58785;55.566;38.058;2023-02-19T13:54:13;98428.91;;;-2.84;66.54
71126;BME280;58785;55.566;38.058;2023-02-19T13:56:39;98424.44;;;-2.95;66.12
71126;BME280;58785;55.566;38.058;2023-02-19T13:59:22;98419.84;;;-3.04;66.14
71126;BME280;58785;55.566;38.058;2023-02-19T14:04:40;98411.31;;;-3.06;66.33
71126;BME280;58785;55.566;38.058;2023-02-19T14:19:56;98391.47;;;-3.21;66.88
71126;BME280;58785;55.566;38.058;2023-02-19T14:30:33;98375.94;;;-3.48;68.11
71126;BME280;58785;55.566;38.058;2023-02-19T14:33:00;98385.94;;;-3.42;67.85
71126;BME280;58785;55.566;38.058;2023-02-19T14:35:37;98385.00;;;-3.41;67.82
71126;BME280;58785;55.566;38.058;2023-02-19T14:38:05;98385.41;;;-3.47;68.36
71126;BME280;58785;55.566;38.058;2023-02-19T14:40:35;98373.34;;;-3.48;68.01
71126;BME280;58785;55.566;38.058;2023-02-19T14:43:04;98368.03;;;-3.47;68.45
71126;BME280;58785;55.566;38.058;2023-02-19T14:45:36;98387.81;;;-3.44;68.43
71126;BME280;58785;55.566;38.058;2023-02-19T14:48:05;98388.13;;;-3.49;68.92
71126;BME280;58785;55.566;38.058;2023-02-19T14:50:33;98377.16;;;-3.54;68.22
71126;BME280;58785;55.566;38.058;2023-02-19T14:53:03;98380.81;;;-3.56;68.98
71126;BME280;58785;55.566;38.058;2023-02-19T14:55:33;98374.16;;;-3.60;68.59
71126;BME280;58785;55.566;38.058;2023-02-19T14:58:27;98371.63;;;-3.62;69.36
71126;BME280;58785;55.566;38.058;2023-02-19T15:00:55;98379.75;;;-3.66;69.06
71126;BME280;58785;55.566;38.058;2023-02-19T15:03:35;98373.09;;;-3.70;69.26
71126;BME280;58785;55.566;38.058;2023-02-19T15:06:06;98378.09;;;-3.67;69.07
71126;BME280;58785;55.566;38.058;2023-02-19T15:08:38;98381.81;;;-3.71;69.42
71126;BME280;58785;55.566;38.058;2023-02-19T15:11:10;98378.69;;;-3.77;69.39
71126;BME280;58785;55.566;38.058;2023-02-19T15:13:36;98376.31;;;-3.80;69.18
71126;BME280;58785;55.566;38.058;2023-02-19T15:16:03;98368.06;;;-3.86;69.40
71126;BME280;58785;55.566;38.058;2023-02-19T15:18:29;98369.94;;;-3.88;68.96
71126;BME280;58785;55.566;38.058;2023-02-19T15:21:02;98373.16;;;-3.85;69.52
71126;BME280;58785;55.566;38.058;2023-02-19T15:23:29;98378.69;;;-3.89;69.41